sensor_id;sensor_type;location;lat;lon;timestamp;P1;durP1;ratioP1;P2;durP2;ratioP2
33553;SDS011;19885;42.208;24.952;2022-12-07T03:54:47;42.40;;;21.57;;
33553;SDS011;19885;42.208;24.952;2022-12-07T03:57:14;47.03;;;21.77;;
33553;SDS011;19885;42.208;24.952;2022-12-07T03:59:41;44.17;;;23.40;;
33553;SDS011;19885;42.208;24.952;2022-12-07T04:02:08;53.33;;;22.60;;
33553;SDS011;19885;42.208;24.952;2022-12-07T04:04:38;40.57;;;20.77;;
33553;SDS011;19885;42.208;24.952;2022-12-07T04:07:04;48.53;;;22.83;;
33553;SDS011;19885;42.208;24.952;2022-12-07T04:09:29;50.67;;;24.37;;
33553;SDS011;19885;42.208;24.952;2022-12-07T04:11:55;43.83;;;23.27;;
33553;SDS011;19885;42.208;24.952;2022-12-07T04:14:20;35.83;;;20.07;;
33553;SDS011;19885;42.208;24.952;2022-12-07T04:16:46;41.30;;;21.83;;
33553;SDS011;19885;42.208;24.952;2022-12-07T04:19:17;36.97;;;20.80;;
33553;SDS011;19885;42.208;24.952;2022-12-07T04:21:44;45.53;;;21.97;;
33553;SDS011;19885;42.208;24.952;2022-12-07T04:24:11;40.67;;;22.03;;
33553;SDS011;19885;42.208;24.952;2022-12-07T04:26:38;41.80;;;20.70;;
33553;SDS011;19885;42.208;24.952;2022-12-07T04:29:03;34.87;;;18.83;;
33553;SDS011;19885;42.208;24.952;2022-12-07T04:31:29;35.93;;;20.73;;
33553;SDS011;19885;42.208;24.952;2022-12-07T04:33:54;35.33;;;19.73;;
33553;SDS011;19885;42.208;24.952;2022-12-07T04:36:20;32.73;;;18.97;;
33553;SDS011;19885;42.208;24.952;2022-12-07T04:38:46;36.47;;;20.23;;
33553;SDS011;19885;42.208;24.952;2022-12-07T04:41:12;37.40;;;20.57;;
33553;SDS011;19885;42.208;24.952;2022-12-07T04:43:37;34.27;;;18.30;;
33553;SDS011;19885;42.208;24.952;2022-12-07T04:46:03;34.63;;;20.13;;
33553;SDS011;19885;42.208;24.952;2022-12-07T04:48:29;37.97;;;19.73;;
33553;SDS011;19885;42.208;24.952;2022-12-07T04:50:55;32.43;;;19.07;;
33553;SDS011;19885;42.208;24.952;2022-12-07T04:53:20;34.43;;;19.43;;
33553;SDS011;19885;42.208;24.952;2022-12-07T04:55:46;34.47;;;20.03;;
33553;SDS011;19885;42.208;24.952;2022-12-07T04:58:12;38.73;;;20.07;;
33553;SDS011;19885;42.208;24.952;2022-12-07T05:00:38;31.07;;;19.03;;
33553;SDS011;19885;42.208;24.952;2022-12-07T05:03:04;39.63;;;19.53;;
33553;SDS011;19885;42.208;24.952;2022-12-07T05:05:30;40.53;;;20.83;;
33553;SDS011;19885;42.208;24.952;2022-12-07T05:07:55;52.53;;;20.37;;
33553;SDS011;19885;42.208;24.952;2022-12-07T05:10:21;32.83;;;19.23;;
33553;SDS011;19885;42.208;24.952;2022-12-07T05:12:46;37.80;;;18.17;;
33553;SDS011;19885;42.208;24.952;2022-12-07T05:15:13;35.07;;;18.63;;
33553;SDS011;19885;42.208;24.952;2022-12-07T05:17:39;33.17;;;18.73;;
33553;SDS011;19885;42.208;24.952;2022-12-07T05:20:05;38.37;;;19.27;;
33553;SDS011;19885;42.208;24.952;2022-12-07T05:22:31;36.10;;;18.13;;
33553;SDS011;19885;42.208;24.952;2022-12-07T05:24:57;36.37;;;18.63;;
33553;SDS011;19885;42.208;24.952;2022-12-07T05:27:22;35.63;;;19.77;;
33553;SDS011;19885;42.208;24.952;2022-12-07T05:29:49;35.50;;;19.73;;
33553;SDS011;19885;42.208;24.952;2022-12-07T05:32:15;34.10;;;18.17;;
33553;SDS011;19885;42.208;24.952;2022-12-07T05:34:41;31.53;;;17.33;;
33553;SDS011;19885;42.208;24.952;2022-12-07T05:37:06;36.73;;;18.17;;
33553;SDS011;19885;42.208;24.952;2022-12-07T05:39:32;39.60;;;18.70;;
33553;SDS011;19885;42.208;24.952;2022-12-07T05:41:57;32.17;;;17.77;;
33553;SDS011;19885;42.208;24.952;2022-12-07T05:44:42;36.47;;;18.47;;
33553;SDS011;19885;42.208;24.952;2022-12-07T05:47:10;34.63;;;19.33;;
33553;SDS011;19885;42.208;24.952;2022-12-07T05:49:36;31.23;;;18.10;;
33553;SDS011;19885;42.208;24.952;2022-12-07T05:52:02;34.53;;;17.47;;
33553;SDS011;19885;42.208;24.952;2022-12-07T05:54:28;35.27;;;18.50;;
33553;SDS011;19885;42.208;24.952;2022-12-07T05:56:54;34.30;;;18.63;;
33553;SDS011;19885;42.208;24.952;2022-12-07T05:59:20;32.37;;;17.87;;
33553;SDS011;19885;42.208;24.952;2022-12-07T06:01:57;33.70;;;18.90;;
33553;SDS011;19885;42.208;24.952;2022-12-07T06:04:27;34.60;;;17.97;;
33553;SDS011;19885;42.208;24.952;2022-12-07T06:06:54;35.53;;;18.30;;
33553;SDS011;19885;42.208;24.952;2022-12-07T06:09:21;35.40;;;18.70;;
33553;SDS011;19885;42.208;24.952;2022-12-07T06:11:47;31.10;;;18.17;;
33553;SDS011;19885;42.208;24.952;2022-12-07T06:14:32;33.80;;;17.20;;
33553;SDS011;19885;42.208;24.952;2022-12-07T06:16:57;33.23;;;18.17;;
33553;SDS011;19885;42.208;24.952;2022-12-07T06:19:23;38.00;;;17.27;;
33553;SDS011;19885;42.208;24.952;2022-12-07T06:21:49;34.67;;;18.67;;
33553;SDS011;19885;42.208;24.952;2022-12-07T06:24:15;34.37;;;18.77;;
33553;SDS011;19885;42.208;24.952;2022-12-07T06:26:41;29.93;;;18.53;;
33553;SDS011;19885;42.208;24.952;2022-12-07T06:29:07;34.93;;;19.20;;
33553;SDS011;19885;42.208;24.952;2022-12-07T06:31:33;34.80;;;20.57;;
33553;SDS011;19885;42.208;24.952;2022-12-07T06:33:59;38.00;;;20.87;;
33553;SDS011;19885;42.208;24.952;2022-12-07T06:36:29;38.10;;;19.37;;
33553;SDS011;19885;42.208;24.952;2022-12-07T06:38:55;38.30;;;21.27;;
33553;SDS011;19885;42.208;24.952;2022-12-07T06:41:21;41.00;;;20.77;;
33553;SDS011;19885;42.208;24.952;2022-12-07T07:12:32;42.90;;;20.00;;
33553;SDS011;19885;42.208;24.952;2022-12-07T07:14:57;38.63;;;17.07;;
33553;SDS011;19885;42.208;24.952;2022-12-07T07:17:22;37.53;;;19.30;;
33553;SDS011;19885;42.208;24.952;2022-12-07T07:19:48;35.37;;;15.90;;
33553;SDS011;19885;42.208;24.952;2022-12-07T07:22:13;31.30;;;17.87;;
33553;SDS011;19885;42.208;24.952;2022-12-07T07:24:39;32.80;;;18.07;;
33553;SDS011;19885;42.208;24.952;2022-12-07T07:27:04;30.97;;;17.10;;
33553;SDS011;19885;42.208;24.952;2022-12-07T07:29:32;35.93;;;17.03;;
33553;SDS011;19885;42.208;24.952;2022-12-07T07:31:59;31.33;;;16.80;;
33553;SDS011;19885;42.208;24.952;2022-12-07T07:34:24;33.10;;;15.60;;
33553;SDS011;19885;42.208;24.952;2022-12-07T07:36:50;28.37;;;16.30;;
33553;SDS011;19885;42.208;24.952;2022-12-07T07:39:15;32.77;;;16.53;;
33553;SDS011;19885;42.208;24.952;2022-12-07T07:41:41;28.73;;;15.67;;
33553;SDS011;19885;42.208;24.952;2022-12-07T07:44:06;30.73;;;15.33;;
33553;SDS011;19885;42.208;24.952;2022-12-07T07:46:32;40.27;;;16.73;;
33553;SDS011;19885;42.208;24.952;2022-12-07T07:48:58;25.83;;;13.33;;
33553;SDS011;19885;42.208;24.952;2022-12-07T07:51:23;28.17;;;14.97;;
33553;SDS011;19885;42.208;24.952;2022-12-07T07:53:50;27.87;;;15.77;;
33553;SDS011;19885;42.208;24.952;2022-12-07T07:56:15;31.80;;;15.63;;
33553;SDS011;19885;42.208;24.952;2022-12-07T07:58:41;32.63;;;15.03;;
33553;SDS011;19885;42.208;24.952;2022-12-07T08:01:06;28.30;;;14.17;;
33553;SDS011;19885;42.208;24.952;2022-12-07T08:03:33;29.00;;;13.07;;
33553;SDS011;19885;42.208;24.952;2022-12-07T08:06:01;28.37;;;14.83;;
33553;SDS011;19885;42.208;24.952;2022-12-07T08:08:27;28.00;;;15.07;;
33553;SDS011;19885;42.208;24.952;2022-12-07T08:10:53;29.90;;;16.33;;
33553;SDS011;19885;42.208;24.952;2022-12-07T08:13:18;38.93;;;15.87;;
33553;SDS011;19885;42.208;24.952;2022-12-07T08:15:46;31.97;;;15.67;;
33553;SDS011;19885;42.208;24.952;2022-12-07T08:18:13;27.07;;;14.73;;
33553;SDS011;19885;42.208;24.952;2022-12-07T08:20:40;28.83;;;14.77;;
33553;SDS011;19885;42.208;24.952;2022-12-07T08:23:07;39.10;;;16.57;;
33553;SDS011;19885;42.208;24.952;2022-12-07T08:25:33;27.27;;;15.33;;
33553;SDS011;19885;42.208;24.952;2022-12-07T08:28:02;30.33;;;16.83;;
33553;SDS011;19885;42.208;24.952;2022-12-07T08:30:27;30.60;;;14.77;;
33553;SDS011;19885;42.208;24.952;2022-12-07T08:32:54;28.00;;;14.80;;
33553;SDS011;19885;42.208;24.952;2022-12-07T08:35:20;33.83;;;16.40;;
33553;SDS011;19885;42.208;24.952;2022-12-07T08:37:46;28.70;;;15.93;;
33553;SDS011;19885;42.208;24.952;2022-12-07T08:40:11;23.53;;;13.20;;
33553;SDS011;19885;42.208;24.952;2022-12-07T08:42:43;37.30;;;15.70;;
33553;SDS011;19885;42.208;24.952;2022-12-07T08:45:18;31.70;;;15.50;;
33553;SDS011;19885;42.208;24.952;2022-12-07T08:47:47;29.97;;;16.47;;
33553;SDS011;19885;42.208;24.952;2022-12-07T08:50:20;31.07;;;15.50;;
33553;SDS011;19885;42.208;24.952;2022-12-07T08:52:56;26.90;;;15.80;;
33553;SDS011;19885;42.208;24.952;2022-12-07T08:55:24;30.03;;;15.37;;
33553;SDS011;19885;42.208;24.952;2022-12-07T09:19:59;32.23;;;19.20;;
33553;SDS011;19885;42.208;24.952;2022-12-07T09:22:28;27.10;;;17.03;;
33553;SDS011;19885;42.208;24.952;2022-12-07T09:24:55;34.50;;;16.40;;
33553;SDS011;19885;42.208;24.952;2022-12-07T09:27:21;35.43;;;18.43;;
33553;SDS011;19885;42.208;24.952;2022-12-07T09:32:25;34.70;;;19.17;;
33553;SDS011;19885;42.208;24.952;2022-12-07T09:34:50;28.93;;;17.50;;
33553;SDS011;19885;42.208;24.952;2022-12-07T09:37:16;38.83;;;18.37;;
33553;SDS011;19885;42.208;24.952;2022-12-07T09:39:41;32.93;;;19.43;;
33553;SDS011;19885;42.208;24.952;2022-12-07T09:42:07;37.57;;;19.00;;
33553;SDS011;19885;42.208;24.952;2022-12-07T09:44:34;30.40;;;17.07;;
33553;SDS011;19885;42.208;24.952;2022-12-07T09:47:00;29.60;;;17.17;;
33553;SDS011;19885;42.208;24.952;2022-12-07T09:49:28;36.53;;;17.63;;
33553;SDS011;19885;42.208;24.952;2022-12-07T09:52:00;35.80;;;19.43;;
33553;SDS011;19885;42.208;24.952;2022-12-07T09:54:26;37.83;;;18.97;;
33553;SDS011;19885;42.208;24.952;2022-12-07T09:56:53;33.73;;;16.97;;
33553;SDS011;19885;42.208;24.952;2022-12-07T09:59:19;31.30;;;16.20;;
33553;SDS011;19885;42.208;24.952;2022-12-07T10:01:47;30.77;;;15.43;;
33553;SDS011;19885;42.208;24.952;2022-12-07T10:04:26;25.23;;;15.43;;
33553;SDS011;19885;42.208;24.952;2022-12-07T10:06:51;25.80;;;15.63;;
33553;SDS011;19885;42.208;24.952;2022-12-07T10:09:18;27.00;;;15.97;;
33553;SDS011;19885;42.208;24.952;2022-12-07T10:17:35;24.90;;;14.17;;
33553;SDS011;19885;42.208;24.952;2022-12-07T10:22:37;26.17;;;14.40;;
33553;SDS011;19885;42.208;24.952;2022-12-07T10:25:09;28.07;;;14.80;;
33553;SDS011;19885;42.208;24.952;2022-12-07T10:27:43;24.30;;;13.83;;
33553;SDS011;19885;42.208;24.952;2022-12-07T10:30:12;29.50;;;15.27;;
33553;SDS011;19885;42.208;24.952;2022-12-07T10:32:40;27.03;;;14.77;;
33553;SDS011;19885;42.208;24.952;2022-12-07T10:37:49;25.57;;;13.60;;
33553;SDS011;19885;42.208;24.952;2022-12-07T11:15:49;27.13;;;13.33;;
33553;SDS011;19885;42.208;24.952;2022-12-07T11:18:26;20.80;;;12.50;;
33553;SDS011;19885;42.208;24.952;2022-12-07T11:21:16;37.70;;;14.33;;
33553;SDS011;19885;42.208;24.952;2022-12-07T11:24:13;27.93;;;14.47;;
33553;SDS011;19885;42.208;24.952;2022-12-07T11:27:01;25.40;;;13.37;;
33553;SDS011;19885;42.208;24.952;2022-12-07T11:35:30;22.87;;;12.60;;
33553;SDS011;19885;42.208;24.952;2022-12-07T11:37:59;26.97;;;12.73;;
33553;SDS011;19885;42.208;24.952;2022-12-07T11:40:59;24.47;;;12.20;;
33553;SDS011;19885;42.208;24.952;2022-12-07T11:43:40;24.23;;;11.97;;
33553;SDS011;19885;42.208;24.952;2022-12-07T11:46:30;24.97;;;12.37;;
33553;SDS011;19885;42.208;24.952;2022-12-07T11:49:12;28.73;;;13.27;;
33553;SDS011;19885;42.208;24.952;2022-12-07T11:51:46;31.07;;;12.97;;
33553;SDS011;19885;42.208;24.952;2022-12-07T11:54:23;20.60;;;10.90;;
33553;SDS011;19885;42.208;24.952;2022-12-07T11:56:55;15.53;;;9.23;;
33553;SDS011;19885;42.208;24.952;2022-12-07T11:59:31;19.93;;;10.57;;
33553;SDS011;19885;42.208;24.952;2022-12-07T12:05:19;17.40;;;9.30;;
33553;SDS011;19885;42.208;24.952;2022-12-07T12:07:49;20.60;;;10.13;;
33553;SDS011;19885;42.208;24.952;2022-12-07T12:10:56;18.43;;;8.57;;
33553;SDS011;19885;42.208;24.952;2022-12-07T12:18:49;15.17;;;9.77;;
33553;SDS011;19885;42.208;24.952;2022-12-07T12:21:28;21.30;;;10.67;;
33553;SDS011;19885;42.208;24.952;2022-12-07T12:24:02;30.63;;;10.53;;
33553;SDS011;19885;42.208;24.952;2022-12-07T12:26:30;20.93;;;11.00;;
33553;SDS011;19885;42.208;24.952;2022-12-07T12:29:05;17.47;;;9.67;;
33553;SDS011;19885;42.208;24.952;2022-12-07T12:31:46;17.23;;;9.87;;
33553;SDS011;19885;42.208;24.952;2022-12-07T12:34:30;22.80;;;10.77;;
33553;SDS011;19885;42.208;24.952;2022-12-07T12:36:57;25.33;;;10.43;;
33553;SDS011;19885;42.208;24.952;2022-12-07T12:39:24;22.67;;;10.47;;
33553;SDS011;19885;42.208;24.952;2022-12-07T12:41:51;21.87;;;9.93;;
33553;SDS011;19885;42.208;24.952;2022-12-07T12:46:52;20.67;;;10.07;;
33553;SDS011;19885;42.208;24.952;2022-12-07T12:54:58;24.47;;;11.60;;
33553;SDS011;19885;42.208;24.952;2022-12-07T12:57:26;21.87;;;11.10;;
33553;SDS011;19885;42.208;24.952;2022-12-07T13:02:21;26.07;;;10.80;;
33553;SDS011;19885;42.208;24.952;2022-12-07T13:10:54;21.97;;;10.47;;
33553;SDS011;19885;42.208;24.952;2022-12-07T13:26:09;24.20;;;11.13;;
33553;SDS011;19885;42.208;24.952;2022-12-07T13:29:03;18.13;;;9.27;;
33553;SDS011;19885;42.208;24.952;2022-12-07T13:34:02;24.10;;;9.20;;
33553;SDS011;19885;42.208;24.952;2022-12-07T13:36:30;26.73;;;10.07;;
33553;SDS011;19885;42.208;24.952;2022-12-07T13:39:10;17.13;;;10.13;;
33553;SDS011;19885;42.208;24.952;2022-12-07T13:41:41;24.07;;;11.20;;
33553;SDS011;19885;42.208;24.952;2022-12-07T13:44:11;24.73;;;11.43;;
33553;SDS011;19885;42.208;24.952;2022-12-07T13:46:50;25.70;;;10.80;;
33553;SDS011;19885;42.208;24.952;2022-12-07T13:49:28;27.77;;;14.53;;
33553;SDS011;19885;42.208;24.952;2022-12-07T13:52:07;24.73;;;12.10;;
33553;SDS011;19885;42.208;24.952;2022-12-07T13:57:32;27.90;;;12.63;;
33553;SDS011;19885;42.208;24.952;2022-12-07T14:00:00;22.57;;;12.23;;
33553;SDS011;19885;42.208;24.952;2022-12-07T14:02:31;28.00;;;11.83;;
33553;SDS011;19885;42.208;24.952;2022-12-07T14:07:47;23.67;;;9.93;;
33553;SDS011;19885;42.208;24.952;2022-12-07T14:12:53;22.20;;;11.43;;
33553;SDS011;19885;42.208;24.952;2022-12-07T14:15:20;21.63;;;11.20;;
33553;SDS011;19885;42.208;24.952;2022-12-07T14:17:51;23.83;;;11.73;;
33553;SDS011;19885;42.208;24.952;2022-12-07T14:23:05;23.73;;;12.23;;
33553;SDS011;19885;42.208;24.952;2022-12-07T14:25:49;25.27;;;12.40;;
33553;SDS011;19885;42.208;24.952;2022-12-07T14:28:27;26.33;;;12.30;;
33553;SDS011;19885;42.208;24.952;2022-12-07T14:30:54;26.37;;;14.03;;
33553;SDS011;19885;42.208;24.952;2022-12-07T14:33:20;27.73;;;12.90;;
33553;SDS011;19885;42.208;24.952;2022-12-07T14:35:47;25.50;;;12.90;;
33553;SDS011;19885;42.208;24.952;2022-12-07T14:38:12;24.57;;;12.30;;
33553;SDS011;19885;42.208;24.952;2022-12-07T14:40:38;28.07;;;12.33;;
33553;SDS011;19885;42.208;24.952;2022-12-07T14:43:12;22.73;;;13.33;;
33553;SDS011;19885;42.208;24.952;2022-12-07T14:45:41;25.67;;;11.83;;
33553;SDS011;19885;42.208;24.952;2022-12-07T14:48:08;25.67;;;12.07;;
33553;SDS011;19885;42.208;24.952;2022-12-07T14:50:38;33.33;;;13.70;;
33553;SDS011;19885;42.208;24.952;2022-12-07T14:53:16;26.67;;;11.83;;
33553;SDS011;19885;42.208;24.952;2022-12-07T14:55:43;30.33;;;15.30;;
33553;SDS011;19885;42.208;24.952;2022-12-07T14:58:16;32.07;;;16.43;;
33553;SDS011;19885;42.208;24.952;2022-12-07T15:00:43;27.53;;;15.73;;
33553;SDS011;19885;42.208;24.952;2022-12-07T15:03:09;37.33;;;14.17;;
33553;SDS011;19885;42.208;24.952;2022-12-07T15:05:35;30.53;;;14.47;;
33553;SDS011;19885;42.208;24.952;2022-12-07T15:08:02;31.80;;;16.23;;
33553;SDS011;19885;42.208;24.952;2022-12-07T15:10:29;28.70;;;16.87;;
33553;SDS011;19885;42.208;24.952;2022-12-07T15:12:57;28.30;;;15.23;;
33553;SDS011;19885;42.208;24.952;2022-12-07T15:15:43;29.30;;;14.93;;
33553;SDS011;19885;42.208;24.952;2022-12-07T15:18:10;25.50;;;14.83;;
33553;SDS011;19885;42.208;24.952;2022-12-07T15:59:23;51.33;;;23.03;;
33553;SDS011;19885;42.208;24.952;2022-12-07T16:01:50;112.43;;;43.03;;
33553;SDS011;19885;42.208;24.952;2022-12-07T16:04:15;117.53;;;41.93;;
33553;SDS011;19885;42.208;24.952;2022-12-07T16:06:41;70.60;;;31.97;;
33553;SDS011;19885;42.208;24.952;2022-12-07T16:09:06;101.70;;;36.97;;
33553;SDS011;19885;42.208;24.952;2022-12-07T16:11:32;90.20;;;38.50;;
33553;SDS011;19885;42.208;24.952;2022-12-07T16:13:57;122.53;;;48.23;;
33553;SDS011;19885;42.208;24.952;2022-12-07T16:16:23;119.27;;;46.70;;
33553;SDS011;19885;42.208;24.952;2022-12-07T16:18:49;136.83;;;54.07;;
33553;SDS011;19885;42.208;24.952;2022-12-07T16:21:15;140.70;;;50.53;;
33553;SDS011;19885;42.208;24.952;2022-12-07T16:23:42;104.77;;;42.17;;
33553;SDS011;19885;42.208;24.952;2022-12-07T16:28:48;77.73;;;36.60;;
33553;SDS011;19885;42.208;24.952;2022-12-07T16:31:15;100.27;;;41.07;;
33553;SDS011;19885;42.208;24.952;2022-12-07T16:33:42;100.07;;;39.83;;
33553;SDS011;19885;42.208;24.952;2022-12-07T16:36:09;103.87;;;40.77;;
33553;SDS011;19885;42.208;24.952;2022-12-07T16:38:36;80.13;;;36.30;;
33553;SDS011;19885;42.208;24.952;2022-12-07T16:41:02;62.00;;;29.17;;
33553;SDS011;19885;42.208;24.952;2022-12-07T16:43:28;65.80;;;32.33;;
33553;SDS011;19885;42.208;24.952;2022-12-07T16:45:53;78.10;;;35.13;;
33553;SDS011;19885;42.208;24.952;2022-12-07T16:48:19;69.27;;;33.30;;
33553;SDS011;19885;42.208;24.952;2022-12-07T16:50:44;49.07;;;23.90;;
33553;SDS011;19885;42.208;24.952;2022-12-07T16:53:10;61.60;;;27.50;;
33553;SDS011;19885;42.208;24.952;2022-12-07T16:55:37;66.70;;;28.93;;
33553;SDS011;19885;42.208;24.952;2022-12-07T16:58:07;56.67;;;28.67;;
33553;SDS011;19885;42.208;24.952;2022-12-07T17:00:33;44.87;;;21.97;;
33553;SDS011;19885;42.208;24.952;2022-12-07T17:02:59;50.60;;;24.60;;
33553;SDS011;19885;42.208;24.952;2022-12-07T17:05:25;64.30;;;25.30;;
33553;SDS011;19885;42.208;24.952;2022-12-07T17:07:53;58.00;;;25.70;;
33553;SDS011;19885;42.208;24.952;2022-12-07T17:10:19;47.73;;;24.43;;
33553;SDS011;19885;42.208;24.952;2022-12-07T17:12:44;40.47;;;21.53;;
33553;SDS011;19885;42.208;24.952;2022-12-07T17:15:10;61.80;;;28.73;;
33553;SDS011;19885;42.208;24.952;2022-12-07T17:17:41;72.30;;;30.60;;
33553;SDS011;19885;42.208;24.952;2022-12-07T17:20:09;54.17;;;28.07;;
33553;SDS011;19885;42.208;24.952;2022-12-07T17:22:35;56.97;;;26.30;;
33553;SDS011;19885;42.208;24.952;2022-12-07T17:25:01;53.80;;;26.90;;
33553;SDS011;19885;42.208;24.952;2022-12-07T17:27:27;64.33;;;27.10;;
33553;SDS011;19885;42.208;24.952;2022-12-07T17:29:52;72.23;;;29.97;;
33553;SDS011;19885;42.208;24.952;2022-12-07T17:32:18;61.63;;;29.27;;
33553;SDS011;19885;42.208;24.952;2022-12-07T17:39:57;67.67;;;29.33;;
33553;SDS011;19885;42.208;24.952;2022-12-07T17:42:25;70.13;;;31.23;;
33553;SDS011;19885;42.208;24.952;2022-12-07T17:45:10;72.63;;;31.77;;
33553;SDS011;19885;42.208;24.952;2022-12-07T17:47:36;57.10;;;28.00;;
33553;SDS011;19885;42.208;24.952;2022-12-07T17:50:03;60.30;;;28.30;;
33553;SDS011;19885;42.208;24.952;2022-12-07T17:52:30;67.80;;;32.67;;
33553;SDS011;19885;42.208;24.952;2022-12-07T17:55:14;58.20;;;25.37;;
33553;SDS011;19885;42.208;24.952;2022-12-07T17:57:40;38.97;;;21.83;;
33553;SDS011;19885;42.208;24.952;2022-12-07T18:00:06;44.77;;;20.43;;
33553;SDS011;19885;42.208;24.952;2022-12-07T18:02:32;44.83;;;24.13;;
33553;SDS011;19885;42.208;24.952;2022-12-07T18:04:58;53.97;;;25.90;;
33553;SDS011;19885;42.208;24.952;2022-12-07T18:07:23;65.73;;;30.67;;
33553;SDS011;19885;42.208;24.952;2022-12-07T18:09:49;56.80;;;29.33;;
33553;SDS011;19885;42.208;24.952;2022-12-07T18:12:14;79.60;;;36.03;;
33553;SDS011;19885;42.208;24.952;2022-12-07T18:14:40;75.00;;;34.53;;
33553;SDS011;19885;42.208;24.952;2022-12-07T18:17:06;87.60;;;40.43;;
33553;SDS011;19885;42.208;24.952;2022-12-07T18:19:31;63.57;;;32.67;;
33553;SDS011;19885;42.208;24.952;2022-12-07T18:21:57;79.20;;;36.43;;
33553;SDS011;19885;42.208;24.952;2022-12-07T18:24:23;86.97;;;39.10;;
33553;SDS011;19885;42.208;24.952;2022-12-07T18:26:48;70.03;;;35.53;;
33553;SDS011;19885;42.208;24.952;2022-12-07T18:29:16;68.03;;;33.67;;
33553;SDS011;19885;42.208;24.952;2022-12-07T18:31:42;63.03;;;33.03;;
33553;SDS011;19885;42.208;24.952;2022-12-07T18:34:11;59.77;;;28.47;;
33553;SDS011;19885;42.208;24.952;2022-12-07T18:36:38;64.73;;;30.43;;
33553;SDS011;19885;42.208;24.952;2022-12-07T18:39:10;59.80;;;28.63;;
33553;SDS011;19885;42.208;24.952;2022-12-07T18:41:36;59.73;;;26.97;;
33553;SDS011;19885;42.208;24.952;2022-12-07T18:44:03;46.43;;;24.73;;
33553;SDS011;19885;42.208;24.952;2022-12-07T18:46:29;49.73;;;24.90;;
33553;SDS011;19885;42.208;24.952;2022-12-07T18:48:55;61.87;;;26.83;;
33553;SDS011;19885;42.208;24.952;2022-12-07T18:51:24;47.43;;;24.33;;
33553;SDS011;19885;42.208;24.952;2022-12-07T18:53:50;48.90;;;24.77;;
33553;SDS011;19885;42.208;24.952;2022-12-07T18:56:23;41.10;;;23.03;;
33553;SDS011;19885;42.208;24.952;2022-12-07T18:58:50;53.73;;;23.13;;
33553;SDS011;19885;42.208;24.952;2022-12-07T19:01:39;45.10;;;22.13;;
33553;SDS011;19885;42.208;24.952;2022-12-07T19:04:06;43.63;;;22.97;;
33553;SDS011;19885;42.208;24.952;2022-12-07T19:06:32;41.37;;;21.27;;
33553;SDS011;19885;42.208;24.952;2022-12-07T19:08:58;43.70;;;23.63;;
33553;SDS011;19885;42.208;24.952;2022-12-07T19:11:25;41.37;;;20.53;;
33553;SDS011;19885;42.208;24.952;2022-12-07T19:14:14;47.20;;;19.37;;
33553;SDS011;19885;42.208;24.952;2022-12-07T19:16:52;46.63;;;21.60;;
33553;SDS011;19885;42.208;24.952;2022-12-07T19:19:19;40.87;;;19.83;;
33553;SDS011;19885;42.208;24.952;2022-12-07T19:21:48;36.87;;;18.30;;
33553;SDS011;19885;42.208;24.952;2022-12-07T19:24:15;38.80;;;18.43;;
33553;SDS011;19885;42.208;24.952;2022-12-07T19:26:41;36.80;;;17.30;;
33553;SDS011;19885;42.208;24.952;2022-12-07T19:29:06;34.50;;;17.23;;
33553;SDS011;19885;42.208;24.952;2022-12-07T19:31:32;33.93;;;17.63;;
33553;SDS011;19885;42.208;24.952;2022-12-07T19:33:57;43.43;;;20.17;;
33553;SDS011;19885;42.208;24.952;2022-12-07T19:36:23;37.00;;;18.60;;
33553;SDS011;19885;42.208;24.952;2022-12-07T19:38:49;39.93;;;19.43;;
33553;SDS011;19885;42.208;24.952;2022-12-07T19:41:16;36.20;;;18.80;;
33553;SDS011;19885;42.208;24.952;2022-12-07T19:44:00;30.90;;;17.63;;
33553;SDS011;19885;42.208;24.952;2022-12-07T19:46:28;35.47;;;18.17;;
33553;SDS011;19885;42.208;24.952;2022-12-07T19:48:54;34.63;;;17.17;;
33553;SDS011;19885;42.208;24.952;2022-12-07T19:51:21;38.87;;;19.37;;
33553;SDS011;19885;42.208;24.952;2022-12-07T19:53:47;48.80;;;21.70;;
33553;SDS011;19885;42.208;24.952;2022-12-07T19:56:13;61.63;;;30.83;;
33553;SDS011;19885;42.208;24.952;2022-12-07T19:58:40;50.60;;;27.03;;
33553;SDS011;19885;42.208;24.952;2022-12-07T20:01:06;36.60;;;18.63;;
33553;SDS011;19885;42.208;24.952;2022-12-07T20:03:31;26.43;;;16.17;;
33553;SDS011;19885;42.208;24.952;2022-12-07T20:05:57;29.47;;;16.07;;
33553;SDS011;19885;42.208;24.952;2022-12-07T20:08:26;30.53;;;17.13;;
33553;SDS011;19885;42.208;24.952;2022-12-07T20:10:52;30.23;;;15.70;;
33553;SDS011;19885;42.208;24.952;2022-12-07T20:13:18;30.47;;;16.03;;
33553;SDS011;19885;42.208;24.952;2022-12-07T20:15:53;38.07;;;16.93;;
33553;SDS011;19885;42.208;24.952;2022-12-07T20:18:19;35.87;;;16.20;;
33553;SDS011;19885;42.208;24.952;2022-12-07T20:20:58;30.27;;;15.20;;
33553;SDS011;19885;42.208;24.952;2022-12-07T20:26:03;42.73;;;15.60;;
33553;SDS011;19885;42.208;24.952;2022-12-07T20:28:30;39.43;;;18.43;;
33553;SDS011;19885;42.208;24.952;2022-12-07T20:30:56;35.77;;;16.50;;
33553;SDS011;19885;42.208;24.952;2022-12-07T20:33:22;41.07;;;18.90;;
33553;SDS011;19885;42.208;24.952;2022-12-07T20:35:47;42.90;;;19.90;;
33553;SDS011;19885;42.208;24.952;2022-12-07T20:38:13;43.43;;;20.23;;
33553;SDS011;19885;42.208;24.952;2022-12-07T20:40:44;35.07;;;17.40;;
33553;SDS011;19885;42.208;24.952;2022-12-07T20:43:11;31.47;;;16.33;;
33553;SDS011;19885;42.208;24.952;2022-12-07T20:45:42;28.10;;;14.23;;
33553;SDS011;19885;42.208;24.952;2022-12-07T20:48:09;31.53;;;14.93;;
33553;SDS011;19885;42.208;24.952;2022-12-07T20:50:35;28.77;;;14.27;;
33553;SDS011;19885;42.208;24.952;2022-12-07T20:53:00;27.93;;;14.33;;
33553;SDS011;19885;42.208;24.952;2022-12-07T20:55:25;29.03;;;13.83;;
33553;SDS011;19885;42.208;24.952;2022-12-07T20:57:51;24.63;;;14.03;;
33553;SDS011;19885;42.208;24.952;2022-12-07T21:00:16;25.73;;;13.50;;
33553;SDS011;19885;42.208;24.952;2022-12-07T21:02:42;28.60;;;12.90;;
33553;SDS011;19885;42.208;24.952;2022-12-07T21:05:07;32.93;;;13.53;;
33553;SDS011;19885;42.208;24.952;2022-12-07T21:07:33;26.90;;;12.33;;
33553;SDS011;19885;42.208;24.952;2022-12-07T21:09:59;23.00;;;13.53;;
33553;SDS011;19885;42.208;24.952;2022-12-07T21:12:24;41.30;;;16.87;;
33553;SDS011;19885;42.208;24.952;2022-12-07T21:14:49;27.13;;;13.87;;
33553;SDS011;19885;42.208;24.952;2022-12-07T21:17:15;29.93;;;14.70;;
33553;SDS011;19885;42.208;24.952;2022-12-07T21:19:40;34.57;;;15.53;;
33553;SDS011;19885;42.208;24.952;2022-12-07T21:22:06;32.40;;;15.60;;
33553;SDS011;19885;42.208;24.952;2022-12-07T21:24:31;35.93;;;15.63;;
33553;SDS011;19885;42.208;24.952;2022-12-07T21:26:57;36.00;;;16.63;;
33553;SDS011;19885;42.208;24.952;2022-12-07T21:29:22;36.00;;;16.33;;
33553;SDS011;19885;42.208;24.952;2022-12-07T21:31:48;24.50;;;14.53;;
33553;SDS011;19885;42.208;24.952;2022-12-07T21:34:13;27.30;;;14.57;;
33553;SDS011;19885;42.208;24.952;2022-12-07T21:36:38;38.43;;;14.57;;